createdAt,value
2023-03-27T00:00:42.704Z,99465.81
2023-03-27T00:03:10.842Z,99472.94
2023-03-27T00:05:38.848Z,99462.63
2023-03-27T00:08:06.491Z,99478.22
2023-03-27T00:10:34.308Z,99472.34
2023-03-27T00:13:03.618Z,99484.81
2023-03-27T00:15:31.639Z,99483.38
2023-03-27T00:18:04.060Z,99490.66
2023-03-27T00:20:31.852Z,99497.88
2023-03-27T00:22:59.466Z,99507.63
2023-03-27T00:25:27.968Z,99511.44
2023-03-27T00:27:56.866Z,99524.75
2023-03-27T00:30:24.456Z,99525.09
2023-03-27T00:32:52.340Z,99540.25
2023-03-27T00:35:20.068Z,99535.25
2023-03-27T00:37:47.856Z,99538.88
2023-03-27T00:40:18.190Z,99544.31
2023-03-27T00:42:45.945Z,99543.53
2023-03-27T00:45:13.529Z,99541.06
2023-03-27T00:47:41.352Z,99540.22
2023-03-27T00:50:08.980Z,99543.84
2023-03-27T00:52:37.344Z,99544.00
2023-03-27T00:55:04.968Z,99551.13
2023-03-27T00:57:32.700Z,99554.75
2023-03-27T01:00:00.386Z,99556.53
2023-03-27T01:02:28.091Z,99558.38
2023-03-27T01:04:55.825Z,99560.25
2023-03-27T01:07:25.233Z,99571.69
2023-03-27T01:09:53.121Z,99569.22
2023-03-27T01:12:20.803Z,99570.13
2023-03-27T01:14:48.364Z,99569.38
2023-03-27T01:17:16.329Z,99566.91
2023-03-27T01:19:43.970Z,99566.16
2023-03-27T01:22:12.249Z,99574.09
2023-03-27T01:24:39.851Z,99576.78
2023-03-27T01:27:07.693Z,99577.78
2023-03-27T01:29:35.667Z,99583.97
2023-03-27T01:32:04.635Z,99593.72
2023-03-27T01:34:32.391Z,99596.41
2023-03-27T01:37:00.925Z,99596.56
2023-03-27T01:39:28.518Z,99603.69
2023-03-27T01:41:56.612Z,99616.94
2023-03-27T01:44:24.219Z,99611.69
2023-03-27T01:46:51.853Z,99616.19
2023-03-27T01:49:19.504Z,99611.84
2023-03-27T01:51:47.087Z,99616.25
2023-03-27T01:54:15.820Z,99616.34
2023-03-27T01:56:46.240Z,99618.97
2023-03-27T01:59:13.852Z,99638.16
2023-03-27T02:01:42.419Z,99631.16
2023-03-27T02:04:10.072Z,99634.63
2023-03-27T02:06:38.161Z,99645.22
2023-03-27T02:09:05.764Z,99652.22
2023-03-27T02:11:33.412Z,99649.59
2023-03-27T02:14:01.381Z,99654.91
2023-03-27T02:16:33.863Z,99662.78
2023-03-27T02:19:02.031Z,99660.25
2023-03-27T02:21:31.458Z,99665.69
2023-03-27T02:24:02.066Z,99663.19
2023-03-27T02:26:29.775Z,99671.13
2023-03-27T02:28:57.395Z,99671.13
2023-03-27T02:31:33.841Z,99676.53
2023-03-27T02:34:02.325Z,99666.09
2023-03-27T02:36:31.163Z,99678.34
2023-03-27T02:38:58.853Z,99681.91
2023-03-27T02:41:26.506Z,99686.38
2023-03-27T02:43:54.100Z,99686.44
2023-03-27T02:46:21.856Z,99696.09
2023-03-27T02:48:49.619Z,99697.88
2023-03-27T02:51:17.185Z,99703.97
2023-03-27T02:53:45.190Z,99706.59
2023-03-27T02:56:13.210Z,99707.44
2023-03-27T02:58:41.103Z,99721.41
2023-03-27T03:01:10.880Z,99718.91
2023-03-27T03:03:38.881Z,99725.09
2023-03-27T03:06:07.512Z,99733.81
2023-03-27T03:08:38.726Z,99740.91
2023-03-27T03:11:07.021Z,99747.00
2023-03-27T03:13:34.933Z,99748.84
2023-03-27T03:16:02.482Z,99746.22
2023-03-27T03:18:30.441Z,99755.03
2023-03-27T03:20:58.128Z,99749.84
2023-03-27T03:23:26.453Z,99753.41
2023-03-27T03:25:56.906Z,99750.81
2023-03-27T03:28:26.117Z,99756.06
2023-03-27T03:30:54.256Z,99752.69
2023-03-27T03:33:22.031Z,99756.28
2023-03-27T03:35:49.648Z,99764.22
2023-03-27T03:38:24.980Z,99764.31
2023-03-27T03:40:52.637Z,99763.44
2023-03-27T03:43:20.658Z,99774.88
2023-03-27T03:45:48.298Z,99774.88
2023-03-27T03:48:16.394Z,99782.72
2023-03-27T03:50:44.303Z,99787.97
2023-03-27T03:53:11.919Z,99796.78
2023-03-27T03:55:39.557Z,99797.69
2023-03-27T03:58:07.136Z,99793.38
2023-03-27T04:00:38.340Z,99791.69
2023-03-27T04:03:07.476Z,99804.78
2023-03-27T04:05:35.236Z,99802.03
2023-03-27T04:08:03.190Z,99806.13
2023-03-27T04:10:30.806Z,99813.78
2023-03-27T04:12:59.755Z,99820.63
2023-03-27T04:15:27.672Z,99814.38
2023-03-27T04:17:55.320Z,99820.25
2023-03-27T04:20:26.843Z,99819.19
2023-03-27T04:22:54.497Z,99825.00
2023-03-27T04:25:22.999Z,99824.78
2023-03-27T04:27:52.058Z,99831.69
2023-03-27T04:30:22.396Z,99834.25
2023-03-27T04:32:50.858Z,99846.28
2023-03-27T04:35:18.511Z,99845.31
2023-03-27T04:37:46.186Z,99859.19
2023-03-27T04:40:14.517Z,99859.06
2023-03-27T04:42:43.782Z,99866.78
2023-03-27T04:45:12.075Z,99864.03
2023-03-27T04:47:40.079Z,99858.63
2023-03-27T04:50:07.732Z,99863.91
2023-03-27T04:52:35.502Z,99870.13
2023-03-27T04:55:03.177Z,99864.31
2023-03-27T04:57:31.883Z,99871.69
2023-03-27T04:59:59.710Z,99872.84
2023-03-27T05:02:27.655Z,99871.41
2023-03-27T05:04:58.633Z,99874.31
2023-03-27T05:07:26.779Z,99886.72
2023-03-27T05:09:54.796Z,99888.69
2023-03-27T05:12:22.394Z,99899.31
2023-03-27T05:14:50.064Z,99906.41
2023-03-27T05:17:17.650Z,99910.78
2023-03-27T05:19:45.393Z,99912.50
2023-03-27T05:22:14.042Z,99911.56
2023-03-27T05:24:41.669Z,99920.16
2023-03-27T05:27:10.299Z,99918.19
2023-03-27T05:29:47.097Z,99922.25
2023-03-27T05:32:15.503Z,99914.13
2023-03-27T05:34:43.138Z,99922.72
2023-03-27T05:37:10.705Z,99917.47
2023-03-27T05:39:38.448Z,99920.13
2023-03-27T05:42:06.124Z,99927.09
2023-03-27T05:44:34.068Z,99931.47
2023-03-27T05:47:01.702Z,99933.25
2023-03-27T05:49:29.528Z,99936.66
2023-03-27T05:51:57.869Z,99952.28
2023-03-27T05:54:25.624Z,99940.78
2023-03-27T05:56:53.661Z,99950.19
2023-03-27T05:59:21.421Z,99949.88
2023-03-27T06:01:49.365Z,99954.75
2023-03-27T06:04:18.205Z,99955.03
2023-03-27T06:06:45.868Z,99957.00
2023-03-27T06:09:13.914Z,99963.41
2023-03-27T06:11:41.675Z,99963.75
2023-03-27T06:14:09.784Z,99967.72
2023-03-27T06:16:38.221Z,99969.22
2023-03-27T06:19:06.207Z,99969.00
2023-03-27T06:21:34.259Z,99975.72
2023-03-27T06:24:01.922Z,99974.59
2023-03-27T06:26:29.661Z,99981.28
2023-03-27T06:28:57.288Z,99986.06
2023-03-27T06:31:25.730Z,99989.03
2023-03-27T06:33:53.765Z,99989.25
2023-03-27T06:36:21.739Z,99990.66
2023-03-27T06:38:49.370Z,99988.84
2023-03-27T06:41:17.693Z,99999.19
2023-03-27T06:43:45.355Z,100006.00
2023-03-27T06:46:13.399Z,100003.94
2023-03-27T06:48:41.148Z,100004.63
2023-03-27T06:51:08.858Z,100010.72
2023-03-27T06:53:38.068Z,100009.91
2023-03-27T06:56:06.075Z,100017.78
2023-03-27T06:58:34.380Z,100015.28
2023-03-27T07:01:02.215Z,100020.72
2023-03-27T07:03:29.988Z,100024.34
2023-03-27T07:05:58.145Z,100019.03
2023-03-27T07:08:26.284Z,100025.81
2023-03-27T07:13:25.281Z,100033.66
2023-03-27T07:15:53.085Z,100037.09
2023-03-27T07:18:22.967Z,100038.84
2023-03-27T07:20:50.952Z,100041.25
2023-03-27T07:23:19.003Z,100045.69
2023-03-27T07:25:46.880Z,100057.13
2023-03-27T07:28:16.947Z,100058.69
2023-03-27T07:30:44.747Z,100052.09
2023-03-27T07:33:13.031Z,100048.94
2023-03-27T07:35:41.524Z,100061.69
2023-03-27T07:38:09.933Z,100063.09
2023-03-27T07:40:40.428Z,100061.59
2023-03-27T07:43:09.608Z,100067.06
2023-03-27T07:45:37.387Z,100066.94
2023-03-27T07:48:05.776Z,100067.00
2023-03-27T07:50:33.593Z,100067.94
2023-03-27T07:53:01.297Z,100065.44
2023-03-27T07:55:30.271Z,100065.13
2023-03-27T07:58:02.210Z,100081.31
2023-03-27T08:00:31.218Z,100074.53
2023-03-27T08:02:59.836Z,100078.44
2023-03-27T08:05:28.296Z,100084.09
2023-03-27T08:07:56.166Z,100084.50
2023-03-27T08:10:23.886Z,100082.28
2023-03-27T08:12:52.143Z,100081.28
2023-03-27T08:15:20.042Z,100084.72
2023-03-27T08:17:47.940Z,100089.72
2023-03-27T08:20:16.809Z,100088.88
2023-03-27T08:22:44.834Z,100095.22
2023-03-27T08:25:13.444Z,100090.09
2023-03-27T08:27:41.525Z,100094.75
2023-03-27T08:30:09.721Z,100089.81
2023-03-27T08:32:37.646Z,100083.78
2023-03-27T08:35:05.444Z,100091.06
2023-03-27T08:37:33.733Z,100086.50
2023-03-27T08:40:02.107Z,100091.13
2023-03-27T08:42:29.904Z,100089.31
2023-03-27T08:44:58.006Z,100099.81
2023-03-27T08:47:26.131Z,100103.50
2023-03-27T08:49:54.236Z,100101.25
2023-03-27T08:52:22.097Z,100109.66
2023-03-27T08:54:49.890Z,100108.34
2023-03-27T08:57:17.850Z,100107.75
2023-03-27T08:59:46.250Z,100115.38
2023-03-27T09:02:14.688Z,100114.41
2023-03-27T09:04:42.746Z,100124.03
2023-03-27T09:07:10.685Z,100121.56
2023-03-27T09:09:39.858Z,100124.38
2023-03-27T09:12:07.890Z,100124.09
2023-03-27T09:14:36.444Z,100127.09
2023-03-27T09:17:04.627Z,100130.66
2023-03-27T09:19:32.461Z,100125.66
2023-03-27T09:22:01.557Z,100131.44
2023-03-27T09:24:29.574Z,100130.78
2023-03-27T09:27:06.794Z,100138.13
2023-03-27T09:29:35.542Z,100135.06
2023-03-27T09:32:04.179Z,100133.34
2023-03-27T09:34:32.722Z,100127.06
2023-03-27T09:37:01.423Z,100125.72
2023-03-27T09:39:29.251Z,100131.19
2023-03-27T09:41:57.131Z,100131.16
2023-03-27T09:44:25.775Z,100128.88
2023-03-27T09:46:53.613Z,100131.63
2023-03-27T09:49:21.871Z,100133.72
2023-03-27T09:51:49.726Z,100124.91
2023-03-27T09:54:17.986Z,100125.66
2023-03-27T09:56:46.580Z,100137.84
2023-03-27T09:59:14.455Z,100147.22
2023-03-27T10:01:42.784Z,100150.25
2023-03-27T10:04:10.678Z,100146.88
2023-03-27T10:06:39.272Z,100136.19
2023-03-27T10:09:08.526Z,100149.28
2023-03-27T10:11:36.541Z,100136.22
2023-03-27T10:14:05.278Z,100137.16
2023-03-27T10:16:33.208Z,100140.75
2023-03-27T10:19:01.085Z,100144.50
2023-03-27T10:21:29.013Z,100149.59
2023-03-27T10:23:56.871Z,100148.38
2023-03-27T10:26:25.142Z,100147.56
2023-03-27T10:28:53.174Z,100148.09
2023-03-27T10:31:20.933Z,100154.97
2023-03-27T10:33:49.310Z,100160.22
2023-03-27T10:36:17.618Z,100172.28
2023-03-27T10:38:45.860Z,100172.34
2023-03-27T10:41:13.728Z,100167.06
2023-03-27T10:43:41.727Z,100169.19
2023-03-27T10:46:09.946Z,100171.00
2023-03-27T10:48:37.938Z,100166.41
2023-03-27T10:51:05.913Z,100173.78
2023-03-27T10:53:37.605Z,100182.38
2023-03-27T10:56:06.243Z,100184.75
2023-03-27T10:58:35.567Z,100185.78
2023-03-27T11:01:04.229Z,100168.00
2023-03-27T11:03:32.647Z,100162.66
2023-03-27T11:06:00.529Z,100162.13
2023-03-27T11:08:28.583Z,100145.16
2023-03-27T11:10:58.508Z,100152.44
2023-03-27T11:13:28.211Z,100142.50
2023-03-27T11:15:56.917Z,100142.63
2023-03-27T11:18:25.087Z,100144.81
2023-03-27T11:20:53.954Z,100151.00
2023-03-27T11:23:22.133Z,100159.81
2023-03-27T11:25:50.233Z,100160.81
2023-03-27T11:28:18.864Z,100164.19
2023-03-27T11:30:46.877Z,100173.16
2023-03-27T11:33:15.663Z,100185.09
2023-03-27T11:35:43.585Z,100190.78
2023-03-27T11:38:12.832Z,100184.34
2023-03-27T11:40:42.641Z,100184.28
2023-03-27T11:43:11.070Z,100180.16
2023-03-27T11:45:38.946Z,100170.44
2023-03-27T11:48:10.225Z,100177.22
2023-03-27T11:50:38.807Z,100193.72
2023-03-27T11:53:07.828Z,100202.69
2023-03-27T11:55:35.718Z,100222.13
2023-03-27T11:58:03.673Z,100224.13
2023-03-27T12:00:32.221Z,100217.00
2023-03-27T12:03:00.339Z,100219.78
2023-03-27T12:05:28.702Z,100217.75
2023-03-27T12:07:56.849Z,100217.56
2023-03-27T12:10:28.542Z,100222.13
2023-03-27T12:12:57.604Z,100233.88
2023-03-27T12:15:25.450Z,100252.34
2023-03-27T12:17:54.837Z,100263.63
2023-03-27T12:20:22.935Z,100269.25
2023-03-27T12:22:50.866Z,100270.72
2023-03-27T12:25:19.185Z,100271.75
2023-03-27T12:27:47.786Z,100254.13
2023-03-27T12:30:16.210Z,100245.16
2023-03-27T12:32:44.452Z,100233.41
2023-03-27T12:35:12.628Z,100223.00
2023-03-27T12:37:40.455Z,100222.44
2023-03-27T12:40:10.779Z,100216.50
2023-03-27T12:42:43.846Z,100218.59
2023-03-27T12:45:12.252Z,100217.00
2023-03-27T12:47:40.250Z,100220.25
2023-03-27T12:50:09.031Z,100228.19
2023-03-27T12:52:37.027Z,100221.97
2023-03-27T12:55:05.965Z,100217.69
2023-03-27T12:57:36.842Z,100210.72
2023-03-27T13:00:10.828Z,100221.81
2023-03-27T13:02:38.929Z,100222.13
2023-03-27T13:05:16.385Z,100227.81
2023-03-27T13:07:54.670Z,100235.56
2023-03-27T13:10:22.551Z,100224.28
2023-03-27T13:12:50.918Z,100222.97
2023-03-27T13:15:21.654Z,100224.50
2023-03-27T13:17:49.552Z,100230.59
2023-03-27T13:20:17.671Z,100241.13
2023-03-27T13:22:45.818Z,100277.84
2023-03-27T13:25:14.352Z,100286.69
2023-03-27T13:27:42.801Z,100294.69
2023-03-27T13:30:11.812Z,100286.84
2023-03-27T13:32:40.180Z,100285.66
2023-03-27T13:35:10.071Z,100281.66
2023-03-27T13:37:38.746Z,100282.06
2023-03-27T13:40:08.841Z,100280.38
2023-03-27T13:42:36.930Z,100283.59
2023-03-27T13:45:05.644Z,100278.91
2023-03-27T13:47:33.854Z,100282.16
2023-03-27T13:50:04.213Z,100276.16
2023-03-27T13:52:32.633Z,100290.09
2023-03-27T13:55:00.731Z,100299.59
2023-03-27T13:57:28.867Z,100289.72
2023-03-27T13:59:57.497Z,100292.31
2023-03-27T14:02:27.425Z,100298.06
2023-03-27T14:04:55.922Z,100295.97
2023-03-27T14:07:23.854Z,100304.00
2023-03-27T14:09:51.840Z,100296.97
2023-03-27T14:12:20.162Z,100299.75
2023-03-27T14:14:48.585Z,100294.84
2023-03-27T14:17:16.814Z,100295.25
2023-03-27T14:19:44.680Z,100283.31
2023-03-27T14:22:12.765Z,100291.63
2023-03-27T14:24:40.625Z,100289.72
2023-03-27T14:27:08.614Z,100299.03
2023-03-27T14:29:36.587Z,100292.63
2023-03-27T14:32:04.616Z,100295.13
2023-03-27T14:34:47.156Z,100317.25
2023-03-27T14:37:23.088Z,100335.03
2023-03-27T14:39:51.226Z,100333.25
2023-03-27T14:42:19.244Z,100346.38
2023-03-27T14:44:47.352Z,100352.44
2023-03-27T14:47:15.549Z,100352.88
2023-03-27T14:49:45.606Z,100329.88
2023-03-27T14:52:19.092Z,100323.97
2023-03-27T14:54:55.137Z,100313.78
2023-03-27T14:57:26.106Z,100311.50
2023-03-27T14:59:54.328Z,100314.91
2023-03-27T15:02:22.582Z,100312.66
2023-03-27T15:04:50.611Z,100304.91
2023-03-27T15:07:19.102Z,100310.53
2023-03-27T15:09:47.084Z,100305.16
2023-03-27T15:12:15.414Z,100306.72
2023-03-27T15:14:43.826Z,100312.38
2023-03-27T15:17:11.689Z,100319.72
2023-03-27T15:19:43.561Z,100322.13
2023-03-27T15:22:11.479Z,100325.72
2023-03-27T15:24:39.940Z,100330.63
2023-03-27T15:27:08.420Z,100331.31
2023-03-27T15:29:39.317Z,100336.84
2023-03-27T15:32:09.381Z,100339.50
2023-03-27T15:34:46.422Z,100343.50
2023-03-27T15:37:14.300Z,100321.81
2023-03-27T15:39:42.147Z,100316.47
2023-03-27T15:42:10.083Z,100318.84
2023-03-27T15:44:40.054Z,100328.28
2023-03-27T15:47:08.440Z,100314.81
2023-03-27T15:49:37.562Z,100319.47
2023-03-27T15:52:05.358Z,100327.56
2023-03-27T15:54:33.238Z,100330.88
2023-03-27T15:57:10.720Z,100333.69
2023-03-27T15:59:52.000Z,100338.28
2023-03-27T16:02:21.188Z,100340.91
2023-03-27T16:04:49.691Z,100344.34
2023-03-27T16:07:18.227Z,100332.63
2023-03-27T16:09:46.879Z,100341.72
2023-03-27T16:12:15.061Z,100336.06
2023-03-27T16:14:43.981Z,100341.38
2023-03-27T16:17:12.311Z,100344.91
2023-03-27T16:19:40.329Z,100353.22
2023-03-27T16:22:08.808Z,100355.56
2023-03-27T16:24:36.624Z,100362.19
2023-03-27T16:27:04.630Z,100361.50
2023-03-27T16:29:32.565Z,100367.69
2023-03-27T16:32:00.516Z,100368.34
2023-03-27T16:34:28.864Z,100372.03
2023-03-27T16:36:56.714Z,100375.56
2023-03-27T16:39:25.468Z,100369.06
2023-03-27T16:41:53.420Z,100375.47
2023-03-27T16:44:21.384Z,100388.13
2023-03-27T16:46:50.073Z,100385.69
2023-03-27T16:49:18.126Z,100401.63
2023-03-27T16:51:46.083Z,100403.34
2023-03-27T16:54:14.004Z,100411.09
2023-03-27T16:56:41.927Z,100411.59
2023-03-27T16:59:10.123Z,100410.13
2023-03-27T17:01:38.536Z,100414.13
2023-03-27T17:04:06.820Z,100429.09
2023-03-27T17:06:34.868Z,100433.75
2023-03-27T17:09:02.708Z,100435.63
2023-03-27T17:11:31.133Z,100446.16
2023-03-27T17:13:59.021Z,100442.50
2023-03-27T17:16:26.879Z,100442.28
2023-03-27T17:18:56.189Z,100441.19
2023-03-27T17:21:23.900Z,100445.56
2023-03-27T17:23:53.647Z,100456.81
2023-03-27T17:26:21.710Z,100461.84
2023-03-27T17:28:49.900Z,100468.56
2023-03-27T17:31:17.893Z,100466.41
2023-03-27T17:33:45.869Z,100481.84
2023-03-27T17:36:14.311Z,100492.91
2023-03-27T17:38:43.354Z,100489.97
2023-03-27T17:41:13.244Z,100495.72
2023-03-27T17:43:41.462Z,100493.56
2023-03-27T17:46:09.478Z,100499.22
2023-03-27T17:48:38.181Z,100504.03
2023-03-27T17:51:09.215Z,100499.97
2023-03-27T17:53:37.720Z,100508.16
2023-03-27T17:56:05.699Z,100510.19
2023-03-27T17:58:34.563Z,100519.94
2023-03-27T18:01:02.801Z,100521.03
2023-03-27T18:03:30.909Z,100521.34
2023-03-27T18:05:59.551Z,100526.84
2023-03-27T18:08:27.810Z,100527.03
2023-03-27T18:10:55.875Z,100541.34
2023-03-27T18:13:24.989Z,100529.25
2023-03-27T18:15:55.480Z,100535.53
2023-03-27T18:18:23.608Z,100540.88
2023-03-27T18:20:51.332Z,100542.72
2023-03-27T18:23:19.188Z,100543.66
2023-03-27T18:25:47.869Z,100544.50
2023-03-27T18:28:16.144Z,100547.94
2023-03-27T18:30:44.535Z,100550.50
2023-03-27T18:33:12.831Z,100554.06
2023-03-27T18:35:43.051Z,100556.09
2023-03-27T18:38:12.368Z,100563.38
2023-03-27T18:40:40.362Z,100567.88
2023-03-27T18:43:08.199Z,100572.34
2023-03-27T18:45:36.039Z,100569.69
2023-03-27T18:48:04.211Z,100572.34
2023-03-27T18:50:32.633Z,100579.34
2023-03-27T18:53:00.593Z,100574.19
2023-03-27T18:55:28.630Z,100578.78
2023-03-27T18:57:56.619Z,100580.63
2023-03-27T19:00:24.650Z,100583.50
2023-03-27T19:02:53.378Z,100594.31
2023-03-27T19:05:21.337Z,100593.75
2023-03-27T19:07:49.264Z,100594.81
2023-03-27T19:10:17.821Z,100599.44
2023-03-27T19:12:45.707Z,100597.00
2023-03-27T19:15:20.316Z,100593.75
2023-03-27T19:17:48.577Z,100597.47
2023-03-27T19:20:16.531Z,100596.84
2023-03-27T19:22:44.374Z,100604.97
2023-03-27T19:25:12.321Z,100602.53
2023-03-27T19:27:40.430Z,100604.56
2023-03-27T19:30:08.319Z,100608.19
2023-03-27T19:32:36.708Z,100604.94
2023-03-27T19:35:04.992Z,100610.47
2023-03-27T19:37:32.812Z,100613.28
2023-03-27T19:40:01.793Z,100607.28
2023-03-27T19:42:29.796Z,100610.91
2023-03-27T19:44:57.672Z,100615.25
2023-03-27T19:47:25.805Z,100611.59
2023-03-27T19:49:53.856Z,100613.88
2023-03-27T19:52:23.484Z,100610.09
2023-03-27T19:54:51.810Z,100615.13
2023-03-27T19:57:19.687Z,100620.13
2023-03-27T19:59:47.627Z,100623.53
2023-03-27T20:02:15.684Z,100628.75
2023-03-27T20:04:44.397Z,100630.63
2023-03-27T20:07:12.166Z,100629.94
2023-03-27T20:09:40.138Z,100628.44
2023-03-27T20:12:08.018Z,100639.19
2023-03-27T20:14:36.036Z,100637.75
2023-03-27T20:17:12.267Z,100635.34
2023-03-27T20:19:49.090Z,100637.41
2023-03-27T20:22:18.802Z,100644.69
2023-03-27T20:24:46.599Z,100632.63
2023-03-27T20:27:14.937Z,100643.50
2023-03-27T20:29:42.934Z,100651.53
2023-03-27T20:32:10.867Z,100652.59
2023-03-27T20:34:40.645Z,100654.41
2023-03-27T20:37:12.190Z,100659.94
2023-03-27T20:39:45.147Z,100656.59
2023-03-27T20:42:15.250Z,100663.75
2023-03-27T20:44:43.243Z,100670.03
2023-03-27T20:47:12.456Z,100663.25
2023-03-27T20:49:43.233Z,100667.78
2023-03-27T20:52:11.447Z,100668.88
2023-03-27T20:54:39.303Z,100669.91
2023-03-27T20:57:07.390Z,100678.78
2023-03-27T20:59:35.247Z,100674.47
2023-03-27T21:02:03.947Z,100671.94
2023-03-27T21:04:32.344Z,100668.38
2023-03-27T21:07:00.292Z,100679.88
2023-03-27T21:09:28.231Z,100677.28
2023-03-27T21:11:56.614Z,100671.19
2023-03-27T21:14:24.744Z,100680.06
2023-03-27T21:16:53.127Z,100668.78
2023-03-27T21:19:21.066Z,100681.22
2023-03-27T21:21:49.015Z,100677.78
2023-03-27T21:24:16.962Z,100679.53
2023-03-27T21:26:45.006Z,100679.69
2023-03-27T21:29:13.271Z,100681.53
2023-03-27T21:31:41.856Z,100686.03
2023-03-27T21:34:09.720Z,100687.06
2023-03-27T21:36:38.065Z,100683.69
2023-03-27T21:39:08.789Z,100683.72
2023-03-27T21:41:37.660Z,100686.44
2023-03-27T21:44:05.744Z,100690.88
2023-03-27T21:46:33.760Z,100697.13
2023-03-27T21:49:01.876Z,100699.00
2023-03-27T21:51:30.020Z,100693.00
2023-03-27T21:53:58.334Z,100697.44
2023-03-27T21:56:26.197Z,100694.91
2023-03-27T21:58:54.032Z,100692.34
2023-03-27T22:01:22.227Z,100693.28
2023-03-27T22:03:50.136Z,100704.72
2023-03-27T22:06:18.797Z,100699.50
2023-03-27T22:08:46.873Z,100702.22
2023-03-27T22:11:14.623Z,100704.88
2023-03-27T22:13:43.658Z,100698.81
2023-03-27T22:16:12.182Z,100705.88
2023-03-27T22:18:40.750Z,100713.03
2023-03-27T22:21:08.458Z,100709.56
2023-03-27T22:23:36.242Z,100715.78
2023-03-27T22:26:04.071Z,100726.28
2023-03-27T22:28:31.825Z,100727.34
2023-03-27T22:30:59.514Z,100731.75
2023-03-27T22:33:27.371Z,100731.84
2023-03-27T22:35:55.278Z,100738.97
2023-03-27T22:38:22.978Z,100738.97
2023-03-27T22:40:50.790Z,100740.78
2023-03-27T22:43:22.600Z,100745.19
2023-03-27T22:45:51.174Z,100742.59
2023-03-27T22:48:18.950Z,100742.59
2023-03-27T22:50:46.964Z,100746.16
2023-03-27T22:53:14.781Z,100746.16
2023-03-27T22:55:43.173Z,100746.25
2023-03-27T22:58:10.861Z,100756.81
2023-03-27T23:00:38.526Z,100758.69
2023-03-27T23:03:06.349Z,100758.84
2023-03-27T23:05:35.351Z,100765.06
2023-03-27T23:08:03.127Z,100768.66
2023-03-27T23:10:30.840Z,100765.19
2023-03-27T23:12:58.423Z,100766.97
2023-03-27T23:15:30.425Z,100774.00
2023-03-27T23:17:58.709Z,100774.00
2023-03-27T23:20:27.251Z,100774.09
2023-03-27T23:22:54.899Z,100768.91
2023-03-27T23:25:22.616Z,100770.63
2023-03-27T23:27:50.713Z,100773.25
2023-03-27T23:30:18.573Z,100774.09
2023-03-27T23:32:46.676Z,100775.03
2023-03-27T23:35:14.311Z,100773.34
2023-03-27T23:37:41.919Z,100776.84
2023-03-27T23:40:09.620Z,100776.84
2023-03-27T23:42:37.364Z,100775.97
2023-03-27T23:45:05.322Z,100780.41
2023-03-27T23:47:33.051Z,100781.34
2023-03-27T23:50:00.736Z,100782.25
2023-03-27T23:52:28.369Z,100794.56
2023-03-27T23:54:56.058Z,100795.41
2023-03-27T23:57:24.119Z,100785.81
2023-03-27T23:59:51.824Z,100797.25
